Aviation Digital Data Service (ADDS)

Output produced by METARs form (1943 UTC 13 November 2019)
found at http://www.aviationweather.gov/metar/data/
 
METAR text: RJDT 131100Z VRB02KT 9999 FEW030 SCT060 BKN080 14/06 Q1015
Conditions at: RJDT (TSUSHIMA AIRPORT, JP) observed 1100 UTC 13 November 2019
Temperature: 14.0°C (57°F)
Dewpoint: 6.0°C (43°F) [RH = 58%]
Pressure (altimeter): 29.97 inches Hg (1015.0 mb)
Winds: variable direction winds at 2 MPH (2 knots; 1.0 m/s)
Visibility: 6 or more miles (10+ km)
Ceiling: 8000 feet AGL
Clouds: few clouds at 3000 feet AGL
scattered clouds at 6000 feet AGL
broken clouds at 8000 feet AGL
Weather: no significant weather observed at this time

METAR text: RJDT 131000Z 18004KT 110V250 9999 FEW030 BKN070 BKN/// 13/07 Q1015
Conditions at: RJDT (TSUSHIMA AIRPORT, JP) observed 1000 UTC 13 November 2019
Temperature: 13.0°C (55°F)
Dewpoint: 7.0°C (45°F) [RH = 67%]
Pressure (altimeter): 29.97 inches Hg (1015.0 mb)
Winds: from the S (180 degrees) at 5 MPH (4 knots; 2.1 m/s)
Visibility: 6 or more miles (10+ km)
Ceiling: 7000 feet AGL
Clouds: few clouds at 3000 feet AGL
broken clouds at 7000 feet AGL
Weather: no significant weather observed at this time

METAR text: RJDT 130900Z VRB03KT 9999 FEW030 SCT080 BKN110 14/07 Q1015
Conditions at: RJDT (TSUSHIMA AIRPORT, JP) observed 0900 UTC 13 November 2019
Temperature: 14.0°C (57°F)
Dewpoint: 7.0°C (45°F) [RH = 63%]
Pressure (altimeter): 29.97 inches Hg (1015.0 mb)
Winds: variable direction winds at 3 MPH (3 knots; 1.5 m/s)
Visibility: 6 or more miles (10+ km)
Ceiling: 11000 feet AGL
Clouds: few clouds at 3000 feet AGL
scattered clouds at 8000 feet AGL
broken clouds at 11000 feet AGL
Weather: no significant weather observed at this time

METAR text: RJDT 130800Z VRB03KT 9999 -RA FEW008 SCT070 OVC090 15/10 Q1014
Conditions at: RJDT (TSUSHIMA AIRPORT, JP) observed 0800 UTC 13 November 2019
Temperature: 15.0°C (59°F)
Dewpoint: 10.0°C (50°F) [RH = 72%]
Pressure (altimeter): 29.94 inches Hg (1014.0 mb)
Winds: variable direction winds at 3 MPH (3 knots; 1.5 m/s)
Visibility: 6 or more miles (10+ km)
Ceiling: 9000 feet AGL
Clouds: few clouds at 800 feet AGL
scattered clouds at 7000 feet AGL
overcast cloud deck at 9000 feet AGL
Weather: -RA  (light rain)

METAR text: RJDT 130735Z 27010KT 230V340 9999 -RA FEW005 SCT015 OVC090 15/10 Q1015 RMK 1ST005 3CU015 8AS090 A2998
Conditions at: RJDT (TSUSHIMA AIRPORT, JP) observed 0735 UTC 13 November 2019
Temperature: 15.0°C (59°F)
Dewpoint: 10.0°C (50°F) [RH = 72%]
Pressure (altimeter): 29.97 inches Hg (1015.0 mb)
Winds: from the W (270 degrees) at 12 MPH (10 knots; 5.1 m/s)
Visibility: 6 or more miles (10+ km)
Ceiling: 9000 feet AGL
Clouds: few clouds at 500 feet AGL
scattered clouds at 1500 feet AGL
overcast cloud deck at 9000 feet AGL
Weather: -RA  (light rain)

METAR text: RJDT 130710Z 24006KT 200V290 5000 SHRA FEW020 SCT025 BKN030 16/08 Q1015 RMK 1CU020 3CU025 5CU030 A2998
Conditions at: RJDT (TSUSHIMA AIRPORT, JP) observed 0710 UTC 13 November 2019
Temperature: 16.0°C (61°F)
Dewpoint: 8.0°C (46°F) [RH = 59%]
Pressure (altimeter): 29.97 inches Hg (1015.0 mb)
Winds: from the WSW (240 degrees) at 7 MPH (6 knots; 3.1 m/s)
Visibility: 3 miles ( 5 km)
Ceiling: 3000 feet AGL
Clouds: few clouds at 2000 feet AGL
scattered clouds at 2500 feet AGL
broken clouds at 3000 feet AGL
Weather: SHRA  (rain showers)

METAR text: RJDT 130700Z 25006G16KT 160V330 9999 -SHRA FEW020 BKN030 BKN070 17/08 Q1015
Conditions at: RJDT (TSUSHIMA AIRPORT, JP) observed 0700 UTC 13 November 2019
Temperature: 17.0°C (63°F)
Dewpoint: 8.0°C (46°F) [RH = 55%]
Pressure (altimeter): 29.97 inches Hg (1015.0 mb)
Winds: from the WSW (250 degrees) at 7 MPH (6 knots; 3.1 m/s)
gusting to 18 MPH (16 knots; 8.2 m/s)
Visibility: 6 or more miles (10+ km)
Ceiling: 3000 feet AGL
Clouds: few clouds at 2000 feet AGL
broken clouds at 3000 feet AGL
broken clouds at 7000 feet AGL
Weather: -SHRA  (light rain showers)

METAR text: RJDT 130600Z 25003KT 170V320 9999 -RA FEW030 BKN100 OVC120 18/08 Q1015
Conditions at: RJDT (TSUSHIMA AIRPORT, JP) observed 0600 UTC 13 November 2019
Temperature: 18.0°C (64°F)
Dewpoint: 8.0°C (46°F) [RH = 52%]
Pressure (altimeter): 29.97 inches Hg (1015.0 mb)
Winds: from the WSW (250 degrees) at 3 MPH (3 knots; 1.5 m/s)
Visibility: 6 or more miles (10+ km)
Ceiling: 10000 feet AGL
Clouds: few clouds at 3000 feet AGL
broken clouds at 10000 feet AGL
overcast cloud deck at 12000 feet AGL
Weather: -RA  (light rain)

METAR text: RJDT 130500Z 26008G18KT 180V310 9999 FEW025 BKN100 18/07 Q1016
Conditions at: RJDT (TSUSHIMA AIRPORT, JP) observed 0500 UTC 13 November 2019
Temperature: 18.0°C (64°F)
Dewpoint: 7.0°C (45°F) [RH = 49%]
Pressure (altimeter): 30.00 inches Hg (1016.0 mb)
Winds: from the W (260 degrees) at 9 MPH (8 knots; 4.1 m/s)
gusting to 21 MPH (18 knots; 9.3 m/s)
Visibility: 6 or more miles (10+ km)
Ceiling: 10000 feet AGL
Clouds: few clouds at 2500 feet AGL
broken clouds at 10000 feet AGL
Weather: no significant weather observed at this time

METAR text: RJDT 130400Z 25006KT 190V320 9999 FEW020 SCT025 BKN110 17/07 Q1016
Conditions at: RJDT (TSUSHIMA AIRPORT, JP) observed 0400 UTC 13 November 2019
Temperature: 17.0°C (63°F)
Dewpoint: 7.0°C (45°F) [RH = 52%]
Pressure (altimeter): 30.00 inches Hg (1016.0 mb)
Winds: from the WSW (250 degrees) at 7 MPH (6 knots; 3.1 m/s)
Visibility: 6 or more miles (10+ km)
Ceiling: 11000 feet AGL
Clouds: few clouds at 2000 feet AGL
scattered clouds at 2500 feet AGL
broken clouds at 11000 feet AGL
Weather: no significant weather observed at this time

METAR text: RJDT 130300Z 24005KT 150V310 9999 FEW020 SCT025 BKN120 18/07 Q1017
Conditions at: RJDT (TSUSHIMA AIRPORT, JP) observed 0300 UTC 13 November 2019
Temperature: 18.0°C (64°F)
Dewpoint: 7.0°C (45°F) [RH = 49%]
Pressure (altimeter): 30.03 inches Hg (1017.0 mb)
Winds: from the WSW (240 degrees) at 6 MPH (5 knots; 2.6 m/s)
Visibility: 6 or more miles (10+ km)
Ceiling: 12000 feet AGL
Clouds: few clouds at 2000 feet AGL
scattered clouds at 2500 feet AGL
broken clouds at 12000 feet AGL
Weather: no significant weather observed at this time

METAR text: RJDT 130200Z VRB05KT 9999 FEW025 SCT030 BKN130 18/07 Q1018
Conditions at: RJDT (TSUSHIMA AIRPORT, JP) observed 0200 UTC 13 November 2019
Temperature: 18.0°C (64°F)
Dewpoint: 7.0°C (45°F) [RH = 49%]
Pressure (altimeter): 30.06 inches Hg (1018.0 mb)
Winds: variable direction winds at 6 MPH (5 knots; 2.6 m/s)
Visibility: 6 or more miles (10+ km)
Ceiling: 13000 feet AGL
Clouds: few clouds at 2500 feet AGL
scattered clouds at 3000 feet AGL
broken clouds at 13000 feet AGL
Weather: no significant weather observed at this time

METAR text: RJDT 130100Z 26003KT 220V290 9999 FEW025 BKN140 17/07 Q1019
Conditions at: RJDT (TSUSHIMA AIRPORT, JP) observed 0100 UTC 13 November 2019
Temperature: 17.0°C (63°F)
Dewpoint: 7.0°C (45°F) [RH = 52%]
Pressure (altimeter): 30.09 inches Hg (1019.0 mb)
Winds: from the W (260 degrees) at 3 MPH (3 knots; 1.5 m/s)
Visibility: 6 or more miles (10+ km)
Ceiling: 14000 feet AGL
Clouds: few clouds at 2500 feet AGL
broken clouds at 14000 feet AGL
Weather: no significant weather observed at this time

METAR text: RJDT 130000Z 26005KT 200V310 9999 FEW025 BKN130 17/06 Q1019
Conditions at: RJDT (TSUSHIMA AIRPORT, JP) observed 0000 UTC 13 November 2019
Temperature: 17.0°C (63°F)
Dewpoint: 6.0°C (43°F) [RH = 48%]
Pressure (altimeter): 30.09 inches Hg (1019.0 mb)
Winds: from the W (260 degrees) at 6 MPH (5 knots; 2.6 m/s)
Visibility: 6 or more miles (10+ km)
Ceiling: 13000 feet AGL
Clouds: few clouds at 2500 feet AGL
broken clouds at 13000 feet AGL
Weather: no significant weather observed at this time

METAR text: RJDT 122300Z VRB01KT 9999 FEW030 15/11 Q1018
Conditions at: RJDT (TSUSHIMA AIRPORT, JP) observed 2300 UTC 12 November 2019
Temperature: 15.0°C (59°F)
Dewpoint: 11.0°C (52°F) [RH = 77%]
Pressure (altimeter): 30.06 inches Hg (1018.0 mb)
Winds: variable direction winds at 1 MPH (1 knots; 0.5 m/s)
Visibility: 6 or more miles (10+ km)
Ceiling: at least 12,000 feet AGL
Clouds: few clouds at 3000 feet AGL
Weather: no significant weather observed at this time

METAR text: RJDT 122230Z 21002KT 9999 FEW030 13/09 Q1018
Conditions at: RJDT (TSUSHIMA AIRPORT, JP) observed 2230 UTC 12 November 2019
Temperature: 13.0°C (55°F)
Dewpoint: 9.0°C (48°F) [RH = 77%]
Pressure (altimeter): 30.06 inches Hg (1018.0 mb)
Winds: from the SSW (210 degrees) at 2 MPH (2 knots; 1.0 m/s)
Visibility: 6 or more miles (10+ km)
Ceiling: at least 12,000 feet AGL
Clouds: few clouds at 3000 feet AGL
Weather: no significant weather observed at this time

METAR text: RJDT 121100Z 33004KT 280V340 9999 FEW040 BKN/// 14/09 Q1020
Conditions at: RJDT (TSUSHIMA AIRPORT, JP) observed 1100 UTC 12 November 2019
Temperature: 14.0°C (57°F)
Dewpoint: 9.0°C (48°F) [RH = 72%]
Pressure (altimeter): 30.12 inches Hg (1020.0 mb)
Winds: from the NNW (330 degrees) at 5 MPH (4 knots; 2.1 m/s)
Visibility: 6 or more miles (10+ km)
Ceiling: at least 12,000 feet AGL
Clouds: few clouds at 4000 feet AGL
Weather: no significant weather observed at this time

METAR text: RJDT 121000Z 30003KT 9999 FEW040 BKN/// 15/06 Q1020
Conditions at: RJDT (TSUSHIMA AIRPORT, JP) observed 1000 UTC 12 November 2019
Temperature: 15.0°C (59°F)
Dewpoint: 6.0°C (43°F) [RH = 55%]
Pressure (altimeter): 30.12 inches Hg (1020.0 mb)
Winds: from the WNW (300 degrees) at 3 MPH (3 knots; 1.5 m/s)
Visibility: 6 or more miles (10+ km)
Ceiling: at least 12,000 feet AGL
Clouds: few clouds at 4000 feet AGL
Weather: no significant weather observed at this time

METAR text: RJDT 120900Z 29004KT 9999 FEW040 BKN/// 15/06 Q1020
Conditions at: RJDT (TSUSHIMA AIRPORT, JP) observed 0900 UTC 12 November 2019
Temperature: 15.0°C (59°F)
Dewpoint: 6.0°C (43°F) [RH = 55%]
Pressure (altimeter): 30.12 inches Hg (1020.0 mb)
Winds: from the WNW (290 degrees) at 5 MPH (4 knots; 2.1 m/s)
Visibility: 6 or more miles (10+ km)
Ceiling: at least 12,000 feet AGL
Clouds: few clouds at 4000 feet AGL
Weather: no significant weather observed at this time

METAR text: RJDT 120800Z 30004KT 270V330 9999 FEW040 BKN/// 16/07 Q1019
Conditions at: RJDT (TSUSHIMA AIRPORT, JP) observed 0800 UTC 12 November 2019
Temperature: 16.0°C (61°F)
Dewpoint: 7.0°C (45°F) [RH = 55%]
Pressure (altimeter): 30.09 inches Hg (1019.0 mb)
Winds: from the WNW (300 degrees) at 5 MPH (4 knots; 2.1 m/s)
Visibility: 6 or more miles (10+ km)
Ceiling: at least 12,000 feet AGL
Clouds: few clouds at 4000 feet AGL
Weather: no significant weather observed at this time